Trenton, ND

3:08 AM CDT on July 06, 2015 (GMT -0500)
Fourmile | | Change Station
CLOSE
Current Station
Personal Weather Station
Location: Fairview, MT
Elevation: 2041 ft
Nearby Weather Stations

Elev 2041 ft 47.95 °N, 104.14 °W | Updated 11 minutes ago

Overcast
Overcast
56.8 °F
Feels Like 56.8 °F
N
0.0
Wind Variable Wind from North

Today
High -- | Low -- °F
--% Chance of Precip.
Yesterday
High -- | Low -- °F
Precip. -- in
6:03 AM 9:57 PM
Waning Gibbous, 77% visible
Pressure 30.09 in
Visibility 9.0 miles
Clouds Mostly Cloudy 8500 ft
Dew Point 54 °F
Humidity 90%
Rainfall 0.00 in
Snow Depth Not available.
UV 0 out of 12
Pollen 4.90 out of 12
Air Quality Not available.
Flu Activity Not available.
METAR KISN 060752Z AUTO 02004KT 9SM BKN085 16/11 A3011 RMK AO2 SLP189 T01560106

More Conditions Fewer Conditions

Pressure 30.09 in
Visibility 9.0 miles
Clouds Mostly Cloudy 8500 ft
Dew Point 54 °F
Humidity 90%
Rainfall 0.00 in
Snow Depth Not available.
UV 0 out of 12
Pollen 4.90 out of 12
Air Quality Not available.
Flu Activity Not available.
METAR KISN 060752Z AUTO 02004KT 9SM BKN085 16/11 A3011 RMK AO2 SLP189 T01560106

More Conditions Fewer Conditions

10-Day Weather Forecast

×

Almanac

Astronomy

Jul. 06, 2015 Rise Set
Actual Time
Civil Twilight
Nautical Twilight
Astronomical Twilight
Moon
Length of Visible Light
Length of Day
Tomorrow will be .
, % of the Moon is Illuminated

Today's Extremes

State Highs State Lows

Community

WunderPhotos

Upload Photos

1,835,508 photos uploaded!

WunderBlogs® & News

Nearby

Air Quality

  Air Quality AQ Index Pollutant
Not available.

Snow Depth

Station Depth Elevation

Earthquake Activity

City Distance Mag. Time & Date
Minimum magnitude displayed is 2.5.

Coastal Water Temperatures

Place Temperature

Stations

Nearby Weather Stations

Station Location Temp. Windchill Dew Point Humidity Wind Precip. Elev Updated Type